LFOB 231430Z AUTO 08009KT CAVOK 15/04 Q1033 NOSIG

ElémentsDécodage
LFOB Station météo située sur l'aérodrome de BEAUVAIS Tillé
231430Z émis le 23 du mois à 14h30 UTC
AUTO Bulletin édité par un automate
08009KT vent du 080°, 09 noeuds
CAVOK Ceiling And Visibility OK
- Visibilité de 10 Km ou plus
- Pas de nuage au-dessous de 1500m ou au-dessous de l'altitude minimale du secteur la plus élevée (si>1500m) et absence de CB
- pas de temps présent significatif
15/04 température 15°C, point de rosée 04°C
 soit une humidité relative de 48%
Q1033 la pression au niveau de la mer (QNH) est de 1033 hPa
NOSIG Pas de changement significatif prévu au cours des deux heures suivant l'heure de l'observation